sensor_id;sensor_type;location;lat;lon;timestamp;temperature;humidity
23477;DHT22;11911;50.768;13.150;2022-08-21T04:01:58;16.30;96.30
23477;DHT22;11911;50.768;13.150;2022-08-21T04:04:24;16.30;96.30
23477;DHT22;11911;50.768;13.150;2022-08-21T04:06:50;16.30;96.30
23477;DHT22;11911;50.768;13.150;2022-08-21T04:09:16;16.30;96.30
23477;DHT22;11911;50.768;13.150;2022-08-21T04:11:42;16.30;96.30
23477;DHT22;11911;50.768;13.150;2022-08-21T04:14:08;16.30;96.30
23477;DHT22;11911;50.768;13.150;2022-08-21T04:16:34;16.30;96.30
23477;DHT22;11911;50.768;13.150;2022-08-21T04:19:00;16.30;96.30
23477;DHT22;11911;50.768;13.150;2022-08-21T04:21:26;16.30;96.30
23477;DHT22;11911;50.768;13.150;2022-08-21T04:23:54;16.30;96.30
23477;DHT22;11911;50.768;13.150;2022-08-21T04:26:19;16.30;96.30
23477;DHT22;11911;50.768;13.150;2022-08-21T04:28:45;16.30;96.30
23477;DHT22;11911;50.768;13.150;2022-08-21T04:31:10;16.30;96.30
23477;DHT22;11911;50.768;13.150;2022-08-21T04:33:36;16.30;96.30
23477;DHT22;11911;50.768;13.150;2022-08-21T04:36:02;16.30;96.30
23477;DHT22;11911;50.768;13.150;2022-08-21T04:38:28;16.30;96.30
23477;DHT22;11911;50.768;13.150;2022-08-21T04:40:53;16.30;96.30
23477;DHT22;11911;50.768;13.150;2022-08-21T04:43:19;16.30;96.30
23477;DHT22;11911;50.768;13.150;2022-08-21T04:45:48;16.20;96.30
23477;DHT22;11911;50.768;13.150;2022-08-21T04:48:16;16.20;96.30
23477;DHT22;11911;50.768;13.150;2022-08-21T04:50:53;16.30;96.30
23477;DHT22;11911;50.768;13.150;2022-08-21T04:53:33;16.30;96.30
23477;DHT22;11911;50.768;13.150;2022-08-21T04:56:06;16.30;96.30
23477;DHT22;11911;50.768;13.150;2022-08-21T04:58:34;16.30;96.30
23477;DHT22;11911;50.768;13.150;2022-08-21T05:01:02;16.30;96.30
23477;DHT22;11911;50.768;13.150;2022-08-21T05:03:29;16.40;96.30
23477;DHT22;11911;50.768;13.150;2022-08-21T05:05:57;16.40;96.30
23477;DHT22;11911;50.768;13.150;2022-08-21T05:08:24;16.50;96.30
23477;DHT22;11911;50.768;13.150;2022-08-21T05:10:51;16.50;96.30
23477;DHT22;11911;50.768;13.150;2022-08-21T05:13:17;16.60;96.30
23477;DHT22;11911;50.768;13.150;2022-08-21T05:15:43;16.60;96.30
23477;DHT22;11911;50.768;13.150;2022-08-21T05:18:08;16.70;96.30
23477;DHT22;11911;50.768;13.150;2022-08-21T05:20:35;16.70;96.30
23477;DHT22;11911;50.768;13.150;2022-08-21T05:23:06;16.80;96.30
23477;DHT22;11911;50.768;13.150;2022-08-21T05:25:33;16.80;96.30
23477;DHT22;11911;50.768;13.150;2022-08-21T05:27:58;16.80;96.30
23477;DHT22;11911;50.768;13.150;2022-08-21T05:30:24;16.80;96.30
23477;DHT22;11911;50.768;13.150;2022-08-21T05:32:56;16.90;96.30
23477;DHT22;11911;50.768;13.150;2022-08-21T05:35:21;17.00;96.30
23477;DHT22;11911;50.768;13.150;2022-08-21T05:37:47;17.00;96.30
23477;DHT22;11911;50.768;13.150;2022-08-21T05:40:13;17.10;96.30
23477;DHT22;11911;50.768;13.150;2022-08-21T05:42:39;17.20;96.30
23477;DHT22;11911;50.768;13.150;2022-08-21T05:45:05;17.10;96.30
23477;DHT22;11911;50.768;13.150;2022-08-21T05:47:30;17.20;96.30
23477;DHT22;11911;50.768;13.150;2022-08-21T05:49:56;17.30;96.30
23477;DHT22;11911;50.768;13.150;2022-08-21T05:52:22;17.40;96.30
23477;DHT22;11911;50.768;13.150;2022-08-21T05:54:47;17.60;96.30
23477;DHT22;11911;50.768;13.150;2022-08-21T05:57:13;17.70;96.30
23477;DHT22;11911;50.768;13.150;2022-08-21T05:59:38;17.90;96.30
23477;DHT22;11911;50.768;13.150;2022-08-21T06:02:04;18.10;96.30
23477;DHT22;11911;50.768;13.150;2022-08-21T06:04:29;18.30;96.30
23477;DHT22;11911;50.768;13.150;2022-08-21T06:06:55;18.50;96.30
23477;DHT22;11911;50.768;13.150;2022-08-21T06:09:21;18.70;96.30
23477;DHT22;11911;50.768;13.150;2022-08-21T06:11:46;18.80;96.30
23477;DHT22;11911;50.768;13.150;2022-08-21T06:14:15;18.70;96.30
23477;DHT22;11911;50.768;13.150;2022-08-21T06:16:41;18.70;96.30
23477;DHT22;11911;50.768;13.150;2022-08-21T06:19:07;18.80;96.30
23477;DHT22;11911;50.768;13.150;2022-08-21T06:21:32;18.90;96.30
23477;DHT22;11911;50.768;13.150;2022-08-21T06:23:58;19.00;96.30
23477;DHT22;11911;50.768;13.150;2022-08-21T06:26:24;19.00;96.30
23477;DHT22;11911;50.768;13.150;2022-08-21T06:28:49;18.80;96.30
23477;DHT22;11911;50.768;13.150;2022-08-21T06:31:21;18.80;96.30
23477;DHT22;11911;50.768;13.150;2022-08-21T06:33:47;18.60;96.30
23477;DHT22;11911;50.768;13.150;2022-08-21T06:36:12;18.70;96.30
23477;DHT22;11911;50.768;13.150;2022-08-21T06:38:38;18.70;96.30
23477;DHT22;11911;50.768;13.150;2022-08-21T06:41:04;18.70;96.30
23477;DHT22;11911;50.768;13.150;2022-08-21T06:43:30;18.50;96.30
23477;DHT22;11911;50.768;13.150;2022-08-21T06:45:56;18.40;96.30
23477;DHT22;11911;50.768;13.150;2022-08-21T06:48:22;18.50;96.30
23477;DHT22;11911;50.768;13.150;2022-08-21T06:50:47;18.50;96.30
23477;DHT22;11911;50.768;13.150;2022-08-21T06:53:15;18.50;96.30
23477;DHT22;11911;50.768;13.150;2022-08-21T06:55:41;18.50;96.30
23477;DHT22;11911;50.768;13.150;2022-08-21T06:58:09;18.50;96.30
23477;DHT22;11911;50.768;13.150;2022-08-21T07:00:38;18.50;96.30
23477;DHT22;11911;50.768;13.150;2022-08-21T07:03:04;18.50;96.30
23477;DHT22;11911;50.768;13.150;2022-08-21T07:05:30;18.40;96.30
23477;DHT22;11911;50.768;13.150;2022-08-21T07:07:56;18.30;96.30
23477;DHT22;11911;50.768;13.150;2022-08-21T07:10:23;18.20;96.30
23477;DHT22;11911;50.768;13.150;2022-08-21T07:12:52;18.10;96.30
23477;DHT22;11911;50.768;13.150;2022-08-21T07:15:20;18.10;96.30
23477;DHT22;11911;50.768;13.150;2022-08-21T07:17:45;18.20;96.30
23477;DHT22;11911;50.768;13.150;2022-08-21T07:20:11;18.20;96.30
23477;DHT22;11911;50.768;13.150;2022-08-21T07:22:37;18.10;96.30
23477;DHT22;11911;50.768;13.150;2022-08-21T07:25:04;18.20;96.30
23477;DHT22;11911;50.768;13.150;2022-08-21T07:27:30;18.30;96.30
23477;DHT22;11911;50.768;13.150;2022-08-21T07:29:56;18.40;96.30
23477;DHT22;11911;50.768;13.150;2022-08-21T07:32:22;18.40;96.30
23477;DHT22;11911;50.768;13.150;2022-08-21T07:34:48;18.40;96.30
23477;DHT22;11911;50.768;13.150;2022-08-21T07:37:13;18.40;96.30
23477;DHT22;11911;50.768;13.150;2022-08-21T07:39:39;18.30;96.30
23477;DHT22;11911;50.768;13.150;2022-08-21T07:42:04;18.20;96.30
23477;DHT22;11911;50.768;13.150;2022-08-21T07:44:30;18.20;96.30
23477;DHT22;11911;50.768;13.150;2022-08-21T07:46:56;18.20;96.30
23477;DHT22;11911;50.768;13.150;2022-08-21T07:49:22;18.30;96.30
23477;DHT22;11911;50.768;13.150;2022-08-21T07:51:47;18.50;96.30
23477;DHT22;11911;50.768;13.150;2022-08-21T07:54:13;18.70;96.30
23477;DHT22;11911;50.768;13.150;2022-08-21T07:56:38;18.90;96.30
23477;DHT22;11911;50.768;13.150;2022-08-21T07:59:04;19.10;96.30
23477;DHT22;11911;50.768;13.150;2022-08-21T08:01:29;19.20;96.30
23477;DHT22;11911;50.768;13.150;2022-08-21T08:03:56;19.20;96.30
23477;DHT22;11911;50.768;13.150;2022-08-21T08:06:22;19.20;96.30
23477;DHT22;11911;50.768;13.150;2022-08-21T08:08:48;19.30;96.30
23477;DHT22;11911;50.768;13.150;2022-08-21T08:11:14;19.30;96.30
23477;DHT22;11911;50.768;13.150;2022-08-21T08:13:44;19.50;96.30
23477;DHT22;11911;50.768;13.150;2022-08-21T08:16:11;19.60;96.30
23477;DHT22;11911;50.768;13.150;2022-08-21T08:18:37;19.60;96.30
23477;DHT22;11911;50.768;13.150;2022-08-21T08:21:03;19.80;96.30
23477;DHT22;11911;50.768;13.150;2022-08-21T08:23:30;19.90;96.30
23477;DHT22;11911;50.768;13.150;2022-08-21T08:25:56;19.70;96.30
23477;DHT22;11911;50.768;13.150;2022-08-21T08:28:22;19.70;96.30
23477;DHT22;11911;50.768;13.150;2022-08-21T08:30:47;19.60;96.30
23477;DHT22;11911;50.768;13.150;2022-08-21T08:33:15;19.50;96.30
23477;DHT22;11911;50.768;13.150;2022-08-21T08:35:44;19.20;96.30
23477;DHT22;11911;50.768;13.150;2022-08-21T08:38:10;18.90;96.30
23477;DHT22;11911;50.768;13.150;2022-08-21T08:43:38;18.80;96.30
23477;DHT22;11911;50.768;13.150;2022-08-21T08:46:12;18.80;96.30
23477;DHT22;11911;50.768;13.150;2022-08-21T08:48:53;18.80;96.30
23477;DHT22;11911;50.768;13.150;2022-08-21T08:51:44;19.00;96.30
23477;DHT22;11911;50.768;13.150;2022-08-21T08:54:19;19.20;96.30
23477;DHT22;11911;50.768;13.150;2022-08-21T08:56:47;19.40;96.30
23477;DHT22;11911;50.768;13.150;2022-08-21T08:59:19;19.70;96.30
23477;DHT22;11911;50.768;13.150;2022-08-21T09:01:46;19.80;96.30
23477;DHT22;11911;50.768;13.150;2022-08-21T09:04:12;20.00;96.30
23477;DHT22;11911;50.768;13.150;2022-08-21T09:06:55;20.40;96.30
23477;DHT22;11911;50.768;13.150;2022-08-21T09:15:15;20.70;96.30
23477;DHT22;11911;50.768;13.150;2022-08-21T09:17:49;20.60;96.30
23477;DHT22;11911;50.768;13.150;2022-08-21T09:20:28;20.50;96.30
23477;DHT22;11911;50.768;13.150;2022-08-21T09:23:23;20.40;96.30
23477;DHT22;11911;50.768;13.150;2022-08-21T09:26:12;20.50;96.30
23477;DHT22;11911;50.768;13.150;2022-08-21T09:28:38;20.60;96.30
23477;DHT22;11911;50.768;13.150;2022-08-21T09:31:24;20.50;96.30
23477;DHT22;11911;50.768;13.150;2022-08-21T09:33:58;20.70;96.30
23477;DHT22;11911;50.768;13.150;2022-08-21T09:36:26;20.90;96.30
23477;DHT22;11911;50.768;13.150;2022-08-21T09:38:54;20.70;96.30
23477;DHT22;11911;50.768;13.150;2022-08-21T09:41:27;20.70;96.30
23477;DHT22;11911;50.768;13.150;2022-08-21T09:43:54;20.50;96.30
23477;DHT22;11911;50.768;13.150;2022-08-21T09:46:22;20.80;96.30
23477;DHT22;11911;50.768;13.150;2022-08-21T09:48:51;21.30;96.30
23477;DHT22;11911;50.768;13.150;2022-08-21T09:51:26;21.50;96.30
23477;DHT22;11911;50.768;13.150;2022-08-21T09:54:09;21.60;96.30
23477;DHT22;11911;50.768;13.150;2022-08-21T09:56:39;21.70;96.30
23477;DHT22;11911;50.768;13.150;2022-08-21T09:59:32;21.80;96.30
23477;DHT22;11911;50.768;13.150;2022-08-21T10:02:00;21.70;96.30
23477;DHT22;11911;50.768;13.150;2022-08-21T10:04:33;21.60;96.30
23477;DHT22;11911;50.768;13.150;2022-08-21T10:07:10;21.70;96.30
23477;DHT22;11911;50.768;13.150;2022-08-21T10:09:36;22.50;96.30
23477;DHT22;11911;50.768;13.150;2022-08-21T10:12:21;22.80;96.30
23477;DHT22;11911;50.768;13.150;2022-08-21T10:15:16;22.60;96.30
23477;DHT22;11911;50.768;13.150;2022-08-21T10:17:53;22.80;96.30
23477;DHT22;11911;50.768;13.150;2022-08-21T10:36:32;23.70;96.30
23477;DHT22;11911;50.768;13.150;2022-08-21T10:39:11;23.50;96.30
23477;DHT22;11911;50.768;13.150;2022-08-21T10:44:47;24.00;96.30
23477;DHT22;11911;50.768;13.150;2022-08-21T10:47:29;24.40;96.30
23477;DHT22;11911;50.768;13.150;2022-08-21T10:50:44;23.90;96.30
23477;DHT22;11911;50.768;13.150;2022-08-21T10:53:05;24.70;96.30
23477;DHT22;11911;50.768;13.150;2022-08-21T10:55:36;24.80;94.60
23477;DHT22;11911;50.768;13.150;2022-08-21T10:58:11;25.40;96.30
23477;DHT22;11911;50.768;13.150;2022-08-21T11:00:47;25.60;93.20
23477;DHT22;11911;50.768;13.150;2022-08-21T11:05:51;25.80;95.60
23477;DHT22;11911;50.768;13.150;2022-08-21T11:08:29;25.40;92.10
23477;DHT22;11911;50.768;13.150;2022-08-21T11:11:05;25.70;93.50
23477;DHT22;11911;50.768;13.150;2022-08-21T11:13:41;25.40;92.70
23477;DHT22;11911;50.768;13.150;2022-08-21T11:19:00;25.50;96.30
23477;DHT22;11911;50.768;13.150;2022-08-21T11:21:41;25.20;95.00
23477;DHT22;11911;50.768;13.150;2022-08-21T11:27:17;25.60;92.70
23477;DHT22;11911;50.768;13.150;2022-08-21T11:29:47;24.60;91.10
23477;DHT22;11911;50.768;13.150;2022-08-21T11:32:49;23.70;95.00
23477;DHT22;11911;50.768;13.150;2022-08-21T11:38:26;23.30;96.30
23477;DHT22;11911;50.768;13.150;2022-08-21T11:41:29;23.10;96.30
23477;DHT22;11911;50.768;13.150;2022-08-21T11:44:15;23.50;96.30
23477;DHT22;11911;50.768;13.150;2022-08-21T11:46:50;24.20;95.00
23477;DHT22;11911;50.768;13.150;2022-08-21T11:54:52;23.90;95.10
23477;DHT22;11911;50.768;13.150;2022-08-21T11:58:10;23.20;96.30
23477;DHT22;11911;50.768;13.150;2022-08-21T12:00:19;22.90;96.30
23477;DHT22;11911;50.768;13.150;2022-08-21T12:02:50;23.10;96.30
23477;DHT22;11911;50.768;13.150;2022-08-21T12:05:32;23.50;96.30
23477;DHT22;11911;50.768;13.150;2022-08-21T12:08:30;23.10;94.50
23477;DHT22;11911;50.768;13.150;2022-08-21T12:11:08;23.40;96.30
23477;DHT22;11911;50.768;13.150;2022-08-21T12:16:35;23.60;96.30
23477;DHT22;11911;50.768;13.150;2022-08-21T12:26:55;23.00;96.10
23477;DHT22;11911;50.768;13.150;2022-08-21T12:29:24;23.40;96.30
23477;DHT22;11911;50.768;13.150;2022-08-21T12:32:03;23.20;96.30
23477;DHT22;11911;50.768;13.150;2022-08-21T12:34:56;23.00;96.30
23477;DHT22;11911;50.768;13.150;2022-08-21T12:39:57;23.30;96.10
23477;DHT22;11911;50.768;13.150;2022-08-21T12:42:36;23.00;94.80
23477;DHT22;11911;50.768;13.150;2022-08-21T12:45:11;23.20;96.30
23477;DHT22;11911;50.768;13.150;2022-08-21T12:47:49;23.10;95.10
23477;DHT22;11911;50.768;13.150;2022-08-21T12:50:58;23.10;96.30
23477;DHT22;11911;50.768;13.150;2022-08-21T12:56:12;22.90;96.30
23477;DHT22;11911;50.768;13.150;2022-08-21T12:58:44;22.70;96.30
23477;DHT22;11911;50.768;13.150;2022-08-21T13:01:26;23.20;96.30
23477;DHT22;11911;50.768;13.150;2022-08-21T13:03:54;22.90;96.30
23477;DHT22;11911;50.768;13.150;2022-08-21T13:06:22;23.10;96.30
23477;DHT22;11911;50.768;13.150;2022-08-21T13:08:51;23.30;96.30
23477;DHT22;11911;50.768;13.150;2022-08-21T13:11:22;23.50;96.30
23477;DHT22;11911;50.768;13.150;2022-08-21T13:13:50;23.90;96.30
23477;DHT22;11911;50.768;13.150;2022-08-21T13:16:22;23.70;94.10
23477;DHT22;11911;50.768;13.150;2022-08-21T13:19:03;24.60;96.00
23477;DHT22;11911;50.768;13.150;2022-08-21T13:21:33;24.30;92.00
23477;DHT22;11911;50.768;13.150;2022-08-21T13:24:17;24.60;93.20
23477;DHT22;11911;50.768;13.150;2022-08-21T13:26:43;25.10;90.60
23477;DHT22;11911;50.768;13.150;2022-08-21T13:29:11;24.90;89.60
23477;DHT22;11911;50.768;13.150;2022-08-21T13:31:39;23.90;91.50
23477;DHT22;11911;50.768;13.150;2022-08-21T13:34:08;23.50;93.50
23477;DHT22;11911;50.768;13.150;2022-08-21T13:36:39;23.70;94.30
23477;DHT22;11911;50.768;13.150;2022-08-21T13:39:08;23.50;96.30
23477;DHT22;11911;50.768;13.150;2022-08-21T13:41:37;23.80;94.90
23477;DHT22;11911;50.768;13.150;2022-08-21T13:44:16;23.80;94.60
23477;DHT22;11911;50.768;13.150;2022-08-21T13:46:42;24.80;92.60
23477;DHT22;11911;50.768;13.150;2022-08-21T13:49:09;24.90;91.80
23477;DHT22;11911;50.768;13.150;2022-08-21T13:51:36;24.40;90.10
23477;DHT22;11911;50.768;13.150;2022-08-21T13:54:13;24.30;90.70
23477;DHT22;11911;50.768;13.150;2022-08-21T13:56:45;24.30;93.10
23477;DHT22;11911;50.768;13.150;2022-08-21T13:59:12;25.20;93.00
23477;DHT22;11911;50.768;13.150;2022-08-21T14:01:55;25.10;89.00
23477;DHT22;11911;50.768;13.150;2022-08-21T14:04:37;24.60;92.80
23477;DHT22;11911;50.768;13.150;2022-08-21T14:07:15;24.30;93.80
23477;DHT22;11911;50.768;13.150;2022-08-21T14:09:42;24.40;92.10
23477;DHT22;11911;50.768;13.150;2022-08-21T14:12:32;24.90;91.90
23477;DHT22;11911;50.768;13.150;2022-08-21T14:15:03;24.60;92.80
23477;DHT22;11911;50.768;13.150;2022-08-21T14:17:40;24.60;91.40
23477;DHT22;11911;50.768;13.150;2022-08-21T14:20:09;24.00;90.30
23477;DHT22;11911;50.768;13.150;2022-08-21T14:22:46;23.90;95.30
23477;DHT22;11911;50.768;13.150;2022-08-21T14:25:30;23.90;94.00
23477;DHT22;11911;50.768;13.150;2022-08-21T14:30:48;23.90;91.40
23477;DHT22;11911;50.768;13.150;2022-08-21T14:33:30;24.10;95.90
23477;DHT22;11911;50.768;13.150;2022-08-21T14:35:56;24.00;93.50
23477;DHT22;11911;50.768;13.150;2022-08-21T14:38:24;23.50;91.80
23477;DHT22;11911;50.768;13.150;2022-08-21T14:40:52;24.10;94.10
23477;DHT22;11911;50.768;13.150;2022-08-21T14:43:19;24.60;93.10
23477;DHT22;11911;50.768;13.150;2022-08-21T14:45:45;24.60;93.30
23477;DHT22;11911;50.768;13.150;2022-08-21T14:48:11;24.50;90.30
23477;DHT22;11911;50.768;13.150;2022-08-21T14:50:36;23.90;92.50
23477;DHT22;11911;50.768;13.150;2022-08-21T14:53:02;23.60;92.60
23477;DHT22;11911;50.768;13.150;2022-08-21T14:55:30;23.10;95.00
23477;DHT22;11911;50.768;13.150;2022-08-21T14:57:57;22.80;96.30
23477;DHT22;11911;50.768;13.150;2022-08-21T15:00:24;22.80;96.30
23477;DHT22;11911;50.768;13.150;2022-08-21T15:02:51;22.80;96.00
23477;DHT22;11911;50.768;13.150;2022-08-21T15:05:17;22.70;95.80
23477;DHT22;11911;50.768;13.150;2022-08-21T15:07:42;22.70;95.40
23477;DHT22;11911;50.768;13.150;2022-08-21T15:10:10;22.60;94.50
23477;DHT22;11911;50.768;13.150;2022-08-21T15:12:36;22.70;94.80
23477;DHT22;11911;50.768;13.150;2022-08-21T15:15:04;22.40;96.30
23477;DHT22;11911;50.768;13.150;2022-08-21T15:17:30;22.10;96.30
23477;DHT22;11911;50.768;13.150;2022-08-21T15:19:56;22.00;96.30
23477;DHT22;11911;50.768;13.150;2022-08-21T15:22:21;22.00;96.30
23477;DHT22;11911;50.768;13.150;2022-08-21T15:24:47;22.00;96.30
23477;DHT22;11911;50.768;13.150;2022-08-21T15:27:13;21.70;96.30
23477;DHT22;11911;50.768;13.150;2022-08-21T15:29:39;21.70;96.30
23477;DHT22;11911;50.768;13.150;2022-08-21T15:32:19;21.90;96.30
23477;DHT22;11911;50.768;13.150;2022-08-21T15:34:45;21.90;95.90
23477;DHT22;11911;50.768;13.150;2022-08-21T15:37:11;21.80;96.20
23477;DHT22;11911;50.768;13.150;2022-08-21T15:39:36;21.50;96.20
23477;DHT22;11911;50.768;13.150;2022-08-21T15:42:02;21.60;96.30
23477;DHT22;11911;50.768;13.150;2022-08-21T15:44:29;21.50;96.30
23477;DHT22;11911;50.768;13.150;2022-08-21T15:46:55;21.40;96.10
23477;DHT22;11911;50.768;13.150;2022-08-21T15:49:24;21.40;96.30
23477;DHT22;11911;50.768;13.150;2022-08-21T15:51:50;21.70;96.30
23477;DHT22;11911;50.768;13.150;2022-08-21T15:54:15;21.70;96.30
23477;DHT22;11911;50.768;13.150;2022-08-21T15:56:44;21.90;96.30
23477;DHT22;11911;50.768;13.150;2022-08-21T15:59:18;21.60;96.30
23477;DHT22;11911;50.768;13.150;2022-08-21T16:01:45;21.40;96.30
23477;DHT22;11911;50.768;13.150;2022-08-21T16:04:18;21.20;96.30
23477;DHT22;11911;50.768;13.150;2022-08-21T16:06:44;21.50;96.30
23477;DHT22;11911;50.768;13.150;2022-08-21T16:09:10;21.80;95.40
23477;DHT22;11911;50.768;13.150;2022-08-21T16:11:35;21.90;96.30
23477;DHT22;11911;50.768;13.150;2022-08-21T16:14:01;21.90;96.30
23477;DHT22;11911;50.768;13.150;2022-08-21T16:16:27;21.60;96.30
23477;DHT22;11911;50.768;13.150;2022-08-21T16:18:53;21.60;96.30
23477;DHT22;11911;50.768;13.150;2022-08-21T16:21:19;21.90;95.40
23477;DHT22;11911;50.768;13.150;2022-08-21T16:23:44;22.20;95.70
23477;DHT22;11911;50.768;13.150;2022-08-21T16:26:12;21.90;94.30
23477;DHT22;11911;50.768;13.150;2022-08-21T16:28:40;21.80;94.70
23477;DHT22;11911;50.768;13.150;2022-08-21T16:31:08;21.70;96.30
23477;DHT22;11911;50.768;13.150;2022-08-21T16:33:35;21.80;95.50
23477;DHT22;11911;50.768;13.150;2022-08-21T16:36:02;21.70;96.20
23477;DHT22;11911;50.768;13.150;2022-08-21T16:38:28;21.80;96.30
23477;DHT22;11911;50.768;13.150;2022-08-21T16:40:55;21.60;96.30
23477;DHT22;11911;50.768;13.150;2022-08-21T16:43:26;21.60;96.30
23477;DHT22;11911;50.768;13.150;2022-08-21T16:45:53;21.60;96.20
23477;DHT22;11911;50.768;13.150;2022-08-21T16:48:18;21.60;95.30
23477;DHT22;11911;50.768;13.150;2022-08-21T16:50:44;21.50;95.50
23477;DHT22;11911;50.768;13.150;2022-08-21T16:53:09;21.20;95.70
23477;DHT22;11911;50.768;13.150;2022-08-21T16:55:36;21.20;96.20
23477;DHT22;11911;50.768;13.150;2022-08-21T16:58:18;21.30;96.30
23477;DHT22;11911;50.768;13.150;2022-08-21T17:00:45;21.40;96.30
23477;DHT22;11911;50.768;13.150;2022-08-21T17:03:15;21.00;96.20
23477;DHT22;11911;50.768;13.150;2022-08-21T17:05:41;20.90;96.30
23477;DHT22;11911;50.768;13.150;2022-08-21T17:08:07;21.00;96.30
23477;DHT22;11911;50.768;13.150;2022-08-21T17:10:36;21.10;96.30
23477;DHT22;11911;50.768;13.150;2022-08-21T17:13:02;21.00;96.30
23477;DHT22;11911;50.768;13.150;2022-08-21T17:15:36;20.70;96.30
23477;DHT22;11911;50.768;13.150;2022-08-21T17:18:03;20.80;96.30
23477;DHT22;11911;50.768;13.150;2022-08-21T17:20:30;20.60;96.30
23477;DHT22;11911;50.768;13.150;2022-08-21T17:22:56;20.50;96.30
23477;DHT22;11911;50.768;13.150;2022-08-21T17:25:22;20.40;96.30
23477;DHT22;11911;50.768;13.150;2022-08-21T17:27:48;20.20;96.30
23477;DHT22;11911;50.768;13.150;2022-08-21T17:30:14;20.00;96.30
23477;DHT22;11911;50.768;13.150;2022-08-21T17:32:42;19.80;96.30
23477;DHT22;11911;50.768;13.150;2022-08-21T17:35:08;19.70;96.30
23477;DHT22;11911;50.768;13.150;2022-08-21T17:37:34;19.60;96.30
23477;DHT22;11911;50.768;13.150;2022-08-21T17:40:01;19.50;96.30
23477;DHT22;11911;50.768;13.150;2022-08-21T17:42:28;19.30;96.30
23477;DHT22;11911;50.768;13.150;2022-08-21T17:44:54;19.10;96.30
23477;DHT22;11911;50.768;13.150;2022-08-21T17:47:21;18.80;96.30
23477;DHT22;11911;50.768;13.150;2022-08-21T17:49:46;18.70;96.30
23477;DHT22;11911;50.768;13.150;2022-08-21T17:52:12;18.50;96.30
23477;DHT22;11911;50.768;13.150;2022-08-21T17:54:38;18.20;96.30
23477;DHT22;11911;50.768;13.150;2022-08-21T17:57:05;18.00;96.30
23477;DHT22;11911;50.768;13.150;2022-08-21T17:59:31;17.80;96.30
23477;DHT22;11911;50.768;13.150;2022-08-21T18:01:57;17.60;96.30
23477;DHT22;11911;50.768;13.150;2022-08-21T18:04:27;17.30;96.30
23477;DHT22;11911;50.768;13.150;2022-08-21T18:06:53;17.10;96.30
23477;DHT22;11911;50.768;13.150;2022-08-21T18:09:19;17.00;96.30
23477;DHT22;11911;50.768;13.150;2022-08-21T18:11:48;16.80;96.30
23477;DHT22;11911;50.768;13.150;2022-08-21T18:14:14;16.50;96.30
23477;DHT22;11911;50.768;13.150;2022-08-21T18:16:40;16.40;96.30
23477;DHT22;11911;50.768;13.150;2022-08-21T18:19:10;16.20;96.30
23477;DHT22;11911;50.768;13.150;2022-08-21T18:21:39;16.10;96.30
23477;DHT22;11911;50.768;13.150;2022-08-21T18:24:06;15.90;96.30
23477;DHT22;11911;50.768;13.150;2022-08-21T18:26:34;15.80;96.30
23477;DHT22;11911;50.768;13.150;2022-08-21T18:29:03;15.70;96.30
23477;DHT22;11911;50.768;13.150;2022-08-21T18:31:30;15.60;96.30
23477;DHT22;11911;50.768;13.150;2022-08-21T18:33:57;15.40;96.30
23477;DHT22;11911;50.768;13.150;2022-08-21T18:36:23;15.40;96.30
23477;DHT22;11911;50.768;13.150;2022-08-21T18:38:49;15.30;96.30
23477;DHT22;11911;50.768;13.150;2022-08-21T18:41:15;15.20;96.30
23477;DHT22;11911;50.768;13.150;2022-08-21T18:46:07;15.10;96.30
23477;DHT22;11911;50.768;13.150;2022-08-21T18:50:59;15.00;96.30
23477;DHT22;11911;50.768;13.150;2022-08-21T18:53:25;15.10;96.30
23477;DHT22;11911;50.768;13.150;2022-08-21T18:55:50;15.20;96.30
23477;DHT22;11911;50.768;13.150;2022-08-21T19:00:47;15.00;96.30
23477;DHT22;11911;50.768;13.150;2022-08-21T19:03:14;14.90;96.30
23477;DHT22;11911;50.768;13.150;2022-08-21T19:05:41;14.80;96.30
23477;DHT22;11911;50.768;13.150;2022-08-21T19:08:13;14.80;96.30
23477;DHT22;11911;50.768;13.150;2022-08-21T19:10:41;14.90;96.30
23477;DHT22;11911;50.768;13.150;2022-08-21T19:13:09;14.90;96.30
23477;DHT22;11911;50.768;13.150;2022-08-21T19:15:38;14.80;96.30
23477;DHT22;11911;50.768;13.150;2022-08-21T19:18:10;14.70;96.30
23477;DHT22;11911;50.768;13.150;2022-08-21T19:20:36;14.60;96.30
23477;DHT22;11911;50.768;13.150;2022-08-21T19:23:06;14.50;96.30
23477;DHT22;11911;50.768;13.150;2022-08-21T19:25:32;14.40;96.30
23477;DHT22;11911;50.768;13.150;2022-08-21T19:27:58;14.30;96.30
23477;DHT22;11911;50.768;13.150;2022-08-21T19:30:25;14.30;96.30
23477;DHT22;11911;50.768;13.150;2022-08-21T19:32:52;14.30;96.30
23477;DHT22;11911;50.768;13.150;2022-08-21T19:35:17;14.20;96.30
23477;DHT22;11911;50.768;13.150;2022-08-21T19:37:44;14.10;96.30
23477;DHT22;11911;50.768;13.150;2022-08-21T19:40:12;14.00;96.30
23477;DHT22;11911;50.768;13.150;2022-08-21T19:42:38;14.00;96.30
23477;DHT22;11911;50.768;13.150;2022-08-21T19:45:05;13.90;96.30
23477;DHT22;11911;50.768;13.150;2022-08-21T19:47:32;13.90;96.30
23477;DHT22;11911;50.768;13.150;2022-08-21T19:49:59;13.90;96.30
23477;DHT22;11911;50.768;13.150;2022-08-21T19:52:26;13.80;96.30
23477;DHT22;11911;50.768;13.150;2022-08-21T19:54:52;13.80;96.30
23477;DHT22;11911;50.768;13.150;2022-08-21T19:57:17;13.70;96.30
23477;DHT22;11911;50.768;13.150;2022-08-21T19:59:43;13.70;96.30
23477;DHT22;11911;50.768;13.150;2022-08-21T20:02:11;13.70;96.30
23477;DHT22;11911;50.768;13.150;2022-08-21T20:04:37;13.60;96.30
23477;DHT22;11911;50.768;13.150;2022-08-21T20:07:02;13.60;96.30
23477;DHT22;11911;50.768;13.150;2022-08-21T20:09:29;13.60;96.30
23477;DHT22;11911;50.768;13.150;2022-08-21T20:11:57;13.60;96.30
23477;DHT22;11911;50.768;13.150;2022-08-21T20:14:27;13.70;96.30
23477;DHT22;11911;50.768;13.150;2022-08-21T20:16:53;13.70;96.30
23477;DHT22;11911;50.768;13.150;2022-08-21T20:19:20;13.70;96.30
23477;DHT22;11911;50.768;13.150;2022-08-21T20:21:46;13.50;96.30
23477;DHT22;11911;50.768;13.150;2022-08-21T20:24:13;13.40;96.30
23477;DHT22;11911;50.768;13.150;2022-08-21T20:26:40;13.30;96.30
23477;DHT22;11911;50.768;13.150;2022-08-21T20:29:06;13.20;96.30
23477;DHT22;11911;50.768;13.150;2022-08-21T20:31:32;13.10;96.30
23477;DHT22;11911;50.768;13.150;2022-08-21T20:33:57;13.10;96.30
23477;DHT22;11911;50.768;13.150;2022-08-21T20:36:23;13.10;96.30
23477;DHT22;11911;50.768;13.150;2022-08-21T20:38:49;13.20;96.30
23477;DHT22;11911;50.768;13.150;2022-08-21T20:41:18;13.10;96.30